sensor_id;sensor_type;location;lat;lon;timestamp;pressure;altitude;pressure_sealevel;temperature;humidity
22000;BME280;11164;48.818;2.322;2022-09-09T00:00:14;100022.91;;;16.94;49.24
22000;BME280;11164;48.818;2.322;2022-09-09T00:02:49;100025.53;;;17.11;48.29
22000;BME280;11164;48.818;2.322;2022-09-09T00:05:26;100027.16;;;17.12;48.48
22000;BME280;11164;48.818;2.322;2022-09-09T00:07:55;100029.81;;;17.07;48.64
22000;BME280;11164;48.818;2.322;2022-09-09T00:10:31;100033.22;;;16.92;49.18
22000;BME280;11164;48.818;2.322;2022-09-09T00:15:39;100025.97;;;17.03;48.57
22000;BME280;11164;48.818;2.322;2022-09-09T00:18:15;100025.69;;;16.99;48.46
22000;BME280;11164;48.818;2.322;2022-09-09T00:20:53;100032.91;;;16.88;49.27
22000;BME280;11164;48.818;2.322;2022-09-09T00:23:27;100032.59;;;16.85;49.14
22000;BME280;11164;48.818;2.322;2022-09-09T00:28:27;100031.75;;;16.84;48.64
22000;BME280;11164;48.818;2.322;2022-09-09T00:30:56;100036.25;;;16.96;48.72
22000;BME280;11164;48.818;2.322;2022-09-09T00:33:26;100034.66;;;16.78;49.08
22000;BME280;11164;48.818;2.322;2022-09-09T00:35:55;100034.59;;;16.73;48.91
22000;BME280;11164;48.818;2.322;2022-09-09T00:41:00;100024.25;;;16.69;49.02
22000;BME280;11164;48.818;2.322;2022-09-09T00:43:31;100028.16;;;16.79;48.69
22000;BME280;11164;48.818;2.322;2022-09-09T00:52:17;100026.06;;;16.64;50.25
22000;BME280;11164;48.818;2.322;2022-09-09T00:57:33;100015.75;;;16.66;49.14
22000;BME280;11164;48.818;2.322;2022-09-09T01:03:19;100009.47;;;16.65;49.57
22000;BME280;11164;48.818;2.322;2022-09-09T01:11:04;99997.00;;;16.47;49.43
22000;BME280;11164;48.818;2.322;2022-09-09T01:13:32;100001.44;;;16.54;49.83
22000;BME280;11164;48.818;2.322;2022-09-09T01:16:00;99999.16;;;16.45;49.89
22000;BME280;11164;48.818;2.322;2022-09-09T01:18:34;100002.38;;;16.42;50.16
22000;BME280;11164;48.818;2.322;2022-09-09T01:26:41;100002.06;;;16.61;49.63
22000;BME280;11164;48.818;2.322;2022-09-09T01:29:17;99996.66;;;16.44;50.52
22000;BME280;11164;48.818;2.322;2022-09-09T01:34:22;99997.69;;;16.60;49.61
22000;BME280;11164;48.818;2.322;2022-09-09T01:39:20;99989.19;;;16.56;49.76
22000;BME280;11164;48.818;2.322;2022-09-09T01:41:46;99994.50;;;16.63;49.77
22000;BME280;11164;48.818;2.322;2022-09-09T01:44:12;100011.69;;;16.68;49.52
22000;BME280;11164;48.818;2.322;2022-09-09T01:46:38;100010.88;;;16.68;49.70
22000;BME280;11164;48.818;2.322;2022-09-09T01:49:05;100010.22;;;16.61;49.86
22000;BME280;11164;48.818;2.322;2022-09-09T01:51:32;100011.38;;;16.65;50.01
22000;BME280;11164;48.818;2.322;2022-09-09T01:53:58;100010.31;;;16.66;49.92
22000;BME280;11164;48.818;2.322;2022-09-09T01:59:34;99997.28;;;16.68;49.72
22000;BME280;11164;48.818;2.322;2022-09-09T02:02:13;100003.28;;;16.70;50.34
22000;BME280;11164;48.818;2.322;2022-09-09T02:04:42;99985.72;;;16.61;49.84
22000;BME280;11164;48.818;2.322;2022-09-09T02:07:42;99993.06;;;16.60;51.21
22000;BME280;11164;48.818;2.322;2022-09-09T02:10:22;99985.22;;;16.42;50.58
22000;BME280;11164;48.818;2.322;2022-09-09T02:13:04;99991.28;;;16.49;50.34
22000;BME280;11164;48.818;2.322;2022-09-09T02:15:43;99988.44;;;16.61;50.34
22000;BME280;11164;48.818;2.322;2022-09-09T02:18:13;99988.94;;;16.58;50.05
22000;BME280;11164;48.818;2.322;2022-09-09T02:20:41;99993.50;;;16.52;50.13
22000;BME280;11164;48.818;2.322;2022-09-09T02:23:09;99989.06;;;16.46;49.96
22000;BME280;11164;48.818;2.322;2022-09-09T02:25:36;99984.53;;;16.29;50.62
22000;BME280;11164;48.818;2.322;2022-09-09T02:28:06;100001.41;;;16.31;50.67
22000;BME280;11164;48.818;2.322;2022-09-09T02:30:33;99987.31;;;16.35;50.58
22000;BME280;11164;48.818;2.322;2022-09-09T02:33:02;99982.69;;;16.35;50.53
22000;BME280;11164;48.818;2.322;2022-09-09T02:35:30;99995.91;;;16.26;51.11
22000;BME280;11164;48.818;2.322;2022-09-09T02:37:59;99986.91;;;16.48;50.68
22000;BME280;11164;48.818;2.322;2022-09-09T02:40:26;99988.56;;;16.49;50.73
22000;BME280;11164;48.818;2.322;2022-09-09T02:42:54;99990.91;;;16.40;50.74
22000;BME280;11164;48.818;2.322;2022-09-09T02:45:25;99985.72;;;16.39;51.37
22000;BME280;11164;48.818;2.322;2022-09-09T02:48:02;99986.84;;;16.43;51.08
22000;BME280;11164;48.818;2.322;2022-09-09T02:50:34;99988.22;;;16.62;50.57
22000;BME280;11164;48.818;2.322;2022-09-09T02:53:18;99982.06;;;16.72;50.71
22000;BME280;11164;48.818;2.322;2022-09-09T02:58:24;99985.53;;;16.67;50.38
22000;BME280;11164;48.818;2.322;2022-09-09T03:00:50;99984.00;;;16.55;50.63
22000;BME280;11164;48.818;2.322;2022-09-09T03:03:17;99991.84;;;16.68;50.28
22000;BME280;11164;48.818;2.322;2022-09-09T03:05:45;99977.66;;;16.66;50.47
22000;BME280;11164;48.818;2.322;2022-09-09T03:08:11;99980.78;;;16.58;50.50
22000;BME280;11164;48.818;2.322;2022-09-09T03:10:36;99979.47;;;16.38;50.94
22000;BME280;11164;48.818;2.322;2022-09-09T03:13:02;99982.25;;;16.43;51.22
22000;BME280;11164;48.818;2.322;2022-09-09T03:15:29;99973.50;;;16.41;50.74
22000;BME280;11164;48.818;2.322;2022-09-09T03:17:55;99984.44;;;16.24;51.42
22000;BME280;11164;48.818;2.322;2022-09-09T03:20:26;99977.50;;;16.34;51.26
22000;BME280;11164;48.818;2.322;2022-09-09T03:22:52;99981.09;;;16.39;51.17
22000;BME280;11164;48.818;2.322;2022-09-09T03:25:18;99971.09;;;16.45;51.05
22000;BME280;11164;48.818;2.322;2022-09-09T03:27:44;99978.31;;;16.34;51.43
22000;BME280;11164;48.818;2.322;2022-09-09T03:30:10;99977.50;;;16.34;51.27
22000;BME280;11164;48.818;2.322;2022-09-09T03:32:35;99980.72;;;16.30;51.48
22000;BME280;11164;48.818;2.322;2022-09-09T03:35:01;99969.91;;;16.36;50.93
22000;BME280;11164;48.818;2.322;2022-09-09T03:37:26;99979.66;;;16.31;51.11
22000;BME280;11164;48.818;2.322;2022-09-09T03:39:53;99976.94;;;16.31;51.08
22000;BME280;11164;48.818;2.322;2022-09-09T03:42:20;99973.88;;;16.28;50.97
22000;BME280;11164;48.818;2.322;2022-09-09T03:44:46;99972.78;;;16.29;51.05
22000;BME280;11164;48.818;2.322;2022-09-09T03:47:16;99975.75;;;16.27;51.21
22000;BME280;11164;48.818;2.322;2022-09-09T03:49:42;99967.91;;;16.31;51.22
22000;BME280;11164;48.818;2.322;2022-09-09T03:52:09;99972.22;;;16.27;51.01
22000;BME280;11164;48.818;2.322;2022-09-09T03:54:34;99970.78;;;16.19;51.19
22000;BME280;11164;48.818;2.322;2022-09-09T03:57:00;99978.16;;;16.24;51.38
22000;BME280;11164;48.818;2.322;2022-09-09T03:59:25;99973.25;;;16.21;51.31
22000;BME280;11164;48.818;2.322;2022-09-09T04:01:51;99984.88;;;16.16;51.23
22000;BME280;11164;48.818;2.322;2022-09-09T04:04:16;99978.56;;;16.10;51.69
22000;BME280;11164;48.818;2.322;2022-09-09T04:06:42;99968.50;;;16.11;51.72
22000;BME280;11164;48.818;2.322;2022-09-09T04:09:07;99962.72;;;16.07;51.68
22000;BME280;11164;48.818;2.322;2022-09-09T04:11:32;99956.03;;;16.15;51.43
22000;BME280;11164;48.818;2.322;2022-09-09T04:13:58;99963.19;;;16.21;51.72
22000;BME280;11164;48.818;2.322;2022-09-09T04:16:24;99956.28;;;16.13;51.54
22000;BME280;11164;48.818;2.322;2022-09-09T04:18:49;99953.16;;;16.05;51.61
22000;BME280;11164;48.818;2.322;2022-09-09T04:21:15;99952.84;;;16.01;51.93
22000;BME280;11164;48.818;2.322;2022-09-09T04:23:41;99956.88;;;16.16;51.32
22000;BME280;11164;48.818;2.322;2022-09-09T04:26:06;99956.78;;;16.10;51.49
22000;BME280;11164;48.818;2.322;2022-09-09T04:28:34;99958.19;;;15.96;52.12
22000;BME280;11164;48.818;2.322;2022-09-09T04:31:09;99954.25;;;16.04;52.03
22000;BME280;11164;48.818;2.322;2022-09-09T04:33:34;99961.53;;;16.20;54.04
22000;BME280;11164;48.818;2.322;2022-09-09T04:36:00;99952.34;;;16.04;52.03
22000;BME280;11164;48.818;2.322;2022-09-09T04:38:25;99958.72;;;15.93;52.02
22000;BME280;11164;48.818;2.322;2022-09-09T04:40:51;99947.94;;;15.98;51.99
22000;BME280;11164;48.818;2.322;2022-09-09T04:43:18;99956.56;;;15.95;51.80
22000;BME280;11164;48.818;2.322;2022-09-09T04:45:47;99957.50;;;15.84;52.65
22000;BME280;11164;48.818;2.322;2022-09-09T04:48:12;99955.34;;;15.86;52.10
22000;BME280;11164;48.818;2.322;2022-09-09T04:50:38;99959.78;;;15.92;52.13
22000;BME280;11164;48.818;2.322;2022-09-09T04:53:04;99959.28;;;15.95;51.79
22000;BME280;11164;48.818;2.322;2022-09-09T04:55:30;99945.72;;;15.78;52.02
22000;BME280;11164;48.818;2.322;2022-09-09T04:57:56;99963.31;;;15.92;52.04
22000;BME280;11164;48.818;2.322;2022-09-09T05:00:25;99965.72;;;15.89;51.98
22000;BME280;11164;48.818;2.322;2022-09-09T05:02:51;99967.38;;;15.90;52.24
22000;BME280;11164;48.818;2.322;2022-09-09T05:05:16;99959.28;;;15.95;52.01
22000;BME280;11164;48.818;2.322;2022-09-09T05:07:42;99966.81;;;15.88;51.99
22000;BME280;11164;48.818;2.322;2022-09-09T05:10:08;99969.84;;;15.91;52.08
22000;BME280;11164;48.818;2.322;2022-09-09T05:12:35;99976.34;;;15.90;52.11
22000;BME280;11164;48.818;2.322;2022-09-09T05:15:01;99969.59;;;15.93;51.92
22000;BME280;11164;48.818;2.322;2022-09-09T05:17:26;99976.41;;;15.96;51.82
22000;BME280;11164;48.818;2.322;2022-09-09T05:19:52;99986.91;;;15.87;52.38
22000;BME280;11164;48.818;2.322;2022-09-09T05:22:19;99983.13;;;15.88;52.24
22000;BME280;11164;48.818;2.322;2022-09-09T05:24:45;99990.75;;;15.91;52.09
22000;BME280;11164;48.818;2.322;2022-09-09T05:27:12;99988.34;;;15.94;52.43
22000;BME280;11164;48.818;2.322;2022-09-09T05:29:38;99994.31;;;15.91;52.75
22000;BME280;11164;48.818;2.322;2022-09-09T05:32:04;99988.34;;;15.94;52.46
22000;BME280;11164;48.818;2.322;2022-09-09T05:34:29;99991.50;;;16.03;52.37
22000;BME280;11164;48.818;2.322;2022-09-09T05:36:55;99991.81;;;16.07;52.33
22000;BME280;11164;48.818;2.322;2022-09-09T05:39:20;99991.81;;;16.07;52.72
22000;BME280;11164;48.818;2.322;2022-09-09T05:41:46;99992.41;;;16.09;52.47
22000;BME280;11164;48.818;2.322;2022-09-09T05:44:11;99989.69;;;16.09;52.60
22000;BME280;11164;48.818;2.322;2022-09-09T05:46:37;99990.13;;;16.23;51.93
22000;BME280;11164;48.818;2.322;2022-09-09T05:49:03;99998.31;;;16.23;52.19
22000;BME280;11164;48.818;2.322;2022-09-09T05:51:29;99993.69;;;16.23;51.98
22000;BME280;11164;48.818;2.322;2022-09-09T05:53:55;100006.53;;;16.28;52.29
22000;BME280;11164;48.818;2.322;2022-09-09T05:56:28;99996.47;;;16.28;52.57
22000;BME280;11164;48.818;2.322;2022-09-09T05:58:54;99988.06;;;16.30;52.33
22000;BME280;11164;48.818;2.322;2022-09-09T06:01:26;99990.09;;;16.40;52.88
22000;BME280;11164;48.818;2.322;2022-09-09T06:03:52;99986.88;;;16.65;51.59
22000;BME280;11164;48.818;2.322;2022-09-09T06:06:20;99989.91;;;16.68;51.73
22000;BME280;11164;48.818;2.322;2022-09-09T06:08:46;99981.50;;;16.70;51.91
22000;BME280;11164;48.818;2.322;2022-09-09T06:11:15;99980.50;;;16.76;51.74
22000;BME280;11164;48.818;2.322;2022-09-09T06:13:41;99990.22;;;16.72;51.81
22000;BME280;11164;48.818;2.322;2022-09-09T06:16:17;99996.16;;;16.91;51.86
22000;BME280;11164;48.818;2.322;2022-09-09T06:18:43;100003.53;;;16.91;51.85
22000;BME280;11164;48.818;2.322;2022-09-09T06:21:12;99992.63;;;16.91;51.85
22000;BME280;11164;48.818;2.322;2022-09-09T06:23:39;99983.16;;;16.98;51.49
22000;BME280;11164;48.818;2.322;2022-09-09T06:26:14;99997.75;;;17.14;51.34
22000;BME280;11164;48.818;2.322;2022-09-09T06:28:40;99994.31;;;17.24;51.12
22000;BME280;11164;48.818;2.322;2022-09-09T06:31:10;99994.16;;;17.36;50.77
22000;BME280;11164;48.818;2.322;2022-09-09T06:33:37;99994.16;;;17.36;51.23
22000;BME280;11164;48.818;2.322;2022-09-09T06:36:16;100008.84;;;17.35;51.16
22000;BME280;11164;48.818;2.322;2022-09-09T06:38:42;99993.81;;;17.27;51.63
22000;BME280;11164;48.818;2.322;2022-09-09T06:41:08;100002.09;;;17.10;51.77
22000;BME280;11164;48.818;2.322;2022-09-09T06:43:34;99988.66;;;17.31;51.50
22000;BME280;11164;48.818;2.322;2022-09-09T06:46:15;99990.09;;;17.38;51.13
22000;BME280;11164;48.818;2.322;2022-09-09T06:48:41;99997.38;;;17.55;50.85
22000;BME280;11164;48.818;2.322;2022-09-09T06:51:10;100003.38;;;17.57;50.81
22000;BME280;11164;48.818;2.322;2022-09-09T06:53:40;99993.03;;;17.32;51.41
22000;BME280;11164;48.818;2.322;2022-09-09T06:58:43;100010.94;;;17.22;51.33
22000;BME280;11164;48.818;2.322;2022-09-09T07:01:12;99994.47;;;17.12;51.51
22000;BME280;11164;48.818;2.322;2022-09-09T07:03:41;100005.13;;;17.14;51.38
22000;BME280;11164;48.818;2.322;2022-09-09T07:06:14;100006.41;;;17.60;50.76
22000;BME280;11164;48.818;2.322;2022-09-09T07:08:40;100012.09;;;17.91;50.20
22000;BME280;11164;48.818;2.322;2022-09-09T07:11:07;100013.69;;;17.87;50.47
22000;BME280;11164;48.818;2.322;2022-09-09T07:13:34;100007.78;;;17.63;50.77
22000;BME280;11164;48.818;2.322;2022-09-09T07:16:07;100017.47;;;17.81;50.03
22000;BME280;11164;48.818;2.322;2022-09-09T07:18:33;100021.53;;;17.78;50.62
22000;BME280;11164;48.818;2.322;2022-09-09T07:20:59;100017.06;;;18.05;50.35
22000;BME280;11164;48.818;2.322;2022-09-09T07:23:25;100015.91;;;18.28;49.94
22000;BME280;11164;48.818;2.322;2022-09-09T07:25:51;100030.19;;;18.08;50.03
22000;BME280;11164;48.818;2.322;2022-09-09T07:28:19;100026.19;;;18.21;49.88
22000;BME280;11164;48.818;2.322;2022-09-09T07:30:54;100026.66;;;18.50;47.95
22000;BME280;11164;48.818;2.322;2022-09-09T07:33:19;100025.44;;;18.30;48.11
22000;BME280;11164;48.818;2.322;2022-09-09T07:35:45;100025.75;;;18.34;49.57
22000;BME280;11164;48.818;2.322;2022-09-09T07:38:10;100039.72;;;18.43;49.77
22000;BME280;11164;48.818;2.322;2022-09-09T07:40:37;100037.91;;;18.59;48.96
22000;BME280;11164;48.818;2.322;2022-09-09T07:43:03;100034.78;;;18.34;49.49
22000;BME280;11164;48.818;2.322;2022-09-09T07:45:30;100045.03;;;18.22;49.85
22000;BME280;11164;48.818;2.322;2022-09-09T07:47:57;100050.50;;;18.22;49.32
22000;BME280;11164;48.818;2.322;2022-09-09T07:50:23;100047.19;;;17.83;50.11
22000;BME280;11164;48.818;2.322;2022-09-09T07:52:50;100044.34;;;17.67;50.50
22000;BME280;11164;48.818;2.322;2022-09-09T07:55:16;100036.84;;;17.85;49.82
22000;BME280;11164;48.818;2.322;2022-09-09T07:57:41;100052.00;;;18.08;49.46
22000;BME280;11164;48.818;2.322;2022-09-09T08:00:07;100037.25;;;18.36;48.57
22000;BME280;11164;48.818;2.322;2022-09-09T08:02:32;100053.94;;;18.45;48.52
22000;BME280;11164;48.818;2.322;2022-09-09T08:04:58;100055.72;;;18.29;48.61
22000;BME280;11164;48.818;2.322;2022-09-09T08:07:23;100076.22;;;18.31;48.61
22000;BME280;11164;48.818;2.322;2022-09-09T08:09:49;100042.56;;;18.21;48.52
22000;BME280;11164;48.818;2.322;2022-09-09T08:12:15;100056.69;;;18.50;48.26
22000;BME280;11164;48.818;2.322;2022-09-09T08:14:40;100059.97;;;18.52;48.13
22000;BME280;11164;48.818;2.322;2022-09-09T08:17:06;100060.84;;;18.25;48.39
22000;BME280;11164;48.818;2.322;2022-09-09T08:19:32;100073.00;;;18.02;49.03
22000;BME280;11164;48.818;2.322;2022-09-09T08:22:01;100071.00;;;17.92;49.25
22000;BME280;11164;48.818;2.322;2022-09-09T08:24:27;100074.06;;;18.33;48.57
22000;BME280;11164;48.818;2.322;2022-09-09T08:26:53;100070.34;;;18.55;48.06
22000;BME280;11164;48.818;2.322;2022-09-09T08:29:19;100068.31;;;18.88;47.54
22000;BME280;11164;48.818;2.322;2022-09-09T08:32:05;100074.19;;;19.22;46.06
22000;BME280;11164;48.818;2.322;2022-09-09T08:34:30;100067.94;;;19.32;46.95
22000;BME280;11164;48.818;2.322;2022-09-09T08:36:56;100065.53;;;19.51;46.90
22000;BME280;11164;48.818;2.322;2022-09-09T08:39:22;100069.88;;;19.62;46.43
22000;BME280;11164;48.818;2.322;2022-09-09T08:52:53;100089.56;;;19.39;45.23
22000;BME280;11164;48.818;2.322;2022-09-09T08:55:25;100086.25;;;19.21;45.92
22000;BME280;11164;48.818;2.322;2022-09-09T08:57:55;100078.75;;;19.01;47.40
22000;BME280;11164;48.818;2.322;2022-09-09T09:00:21;100083.25;;;19.23;46.75
22000;BME280;11164;48.818;2.322;2022-09-09T09:05:45;100083.66;;;18.99;46.73
22000;BME280;11164;48.818;2.322;2022-09-09T09:08:32;100096.28;;;19.10;45.56
22000;BME280;11164;48.818;2.322;2022-09-09T09:11:03;100100.66;;;19.06;46.95
22000;BME280;11164;48.818;2.322;2022-09-09T09:16:04;100107.44;;;18.99;46.87
22000;BME280;11164;48.818;2.322;2022-09-09T09:18:31;100113.25;;;19.07;46.78
22000;BME280;11164;48.818;2.322;2022-09-09T09:23:59;100123.91;;;19.19;45.77
22000;BME280;11164;48.818;2.322;2022-09-09T09:26:30;100126.41;;;19.26;45.69
22000;BME280;11164;48.818;2.322;2022-09-09T09:28:58;100138.25;;;18.89;46.14
22000;BME280;11164;48.818;2.322;2022-09-09T09:31:26;100134.91;;;18.34;47.45
22000;BME280;11164;48.818;2.322;2022-09-09T09:33:55;100134.66;;;18.35;47.35
22000;BME280;11164;48.818;2.322;2022-09-09T09:36:45;100131.22;;;19.03;45.70
22000;BME280;11164;48.818;2.322;2022-09-09T09:39:26;100123.66;;;19.21;45.49
22000;BME280;11164;48.818;2.322;2022-09-09T09:41:52;100148.22;;;19.10;46.09
22000;BME280;11164;48.818;2.322;2022-09-09T09:44:27;100134.53;;;19.10;45.99
22000;BME280;11164;48.818;2.322;2022-09-09T09:47:04;100149.22;;;18.94;46.44
22000;BME280;11164;48.818;2.322;2022-09-09T09:49:30;100137.06;;;19.22;45.67
22000;BME280;11164;48.818;2.322;2022-09-09T09:52:00;100139.47;;;19.08;45.73
22000;BME280;11164;48.818;2.322;2022-09-09T09:54:29;100141.16;;;19.20;45.77
22000;BME280;11164;48.818;2.322;2022-09-09T09:56:56;100135.53;;;19.62;45.31
22000;BME280;11164;48.818;2.322;2022-09-09T09:59:35;100142.09;;;19.61;45.08
22000;BME280;11164;48.818;2.322;2022-09-09T10:04:38;100146.81;;;19.92;45.26
22000;BME280;11164;48.818;2.322;2022-09-09T10:07:17;100132.47;;;19.43;44.32
22000;BME280;11164;48.818;2.322;2022-09-09T10:09:43;100142.53;;;19.27;46.10
22000;BME280;11164;48.818;2.322;2022-09-09T10:15:47;100166.44;;;19.63;44.33
22000;BME280;11164;48.818;2.322;2022-09-09T10:26:42;100146.44;;;19.52;44.48
22000;BME280;11164;48.818;2.322;2022-09-09T10:34:55;100153.28;;;20.98;43.01
22000;BME280;11164;48.818;2.322;2022-09-09T10:37:41;100164.06;;;20.49;43.45
22000;BME280;11164;48.818;2.322;2022-09-09T10:42:42;100164.91;;;20.29;44.08
22000;BME280;11164;48.818;2.322;2022-09-09T10:45:17;100155.59;;;20.30;44.03
22000;BME280;11164;48.818;2.322;2022-09-09T10:49:05;100151.75;;;20.31;42.85
22000;BME280;11164;48.818;2.322;2022-09-09T10:51:26;100149.28;;;20.39;42.64
22000;BME280;11164;48.818;2.322;2022-09-09T10:56:28;100158.34;;;20.55;43.67
22000;BME280;11164;48.818;2.322;2022-09-09T10:59:00;100146.81;;;20.43;43.91
22000;BME280;11164;48.818;2.322;2022-09-09T11:01:56;100141.91;;;20.14;42.72
22000;BME280;11164;48.818;2.322;2022-09-09T11:04:32;100157.94;;;19.54;44.68
22000;BME280;11164;48.818;2.322;2022-09-09T11:07:05;100152.72;;;18.89;46.77
22000;BME280;11164;48.818;2.322;2022-09-09T11:09:37;100150.19;;;19.25;45.86
22000;BME280;11164;48.818;2.322;2022-09-09T11:12:05;100140.47;;;19.65;45.01
22000;BME280;11164;48.818;2.322;2022-09-09T11:14:59;100158.88;;;19.96;44.02
22000;BME280;11164;48.818;2.322;2022-09-09T11:17:43;100148.44;;;20.39;43.67
22000;BME280;11164;48.818;2.322;2022-09-09T11:20:13;100137.75;;;20.73;43.32
22000;BME280;11164;48.818;2.322;2022-09-09T11:25:30;100146.41;;;21.01;41.81
22000;BME280;11164;48.818;2.322;2022-09-09T11:44:38;100152.50;;;21.58;41.55
22000;BME280;11164;48.818;2.322;2022-09-09T11:47:03;100144.59;;;20.81;42.74
22000;BME280;11164;48.818;2.322;2022-09-09T11:49:40;100138.00;;;20.72;41.67
22000;BME280;11164;48.818;2.322;2022-09-09T11:52:24;100159.31;;;21.00;40.95
22000;BME280;11164;48.818;2.322;2022-09-09T11:54:51;100157.22;;;20.51;42.42
22000;BME280;11164;48.818;2.322;2022-09-09T11:57:32;100155.03;;;20.48;42.42
22000;BME280;11164;48.818;2.322;2022-09-09T11:59:58;100174.69;;;20.96;41.73
22000;BME280;11164;48.818;2.322;2022-09-09T12:02:28;100169.00;;;20.47;42.67
22000;BME280;11164;48.818;2.322;2022-09-09T12:07:49;100174.22;;;20.33;42.61
22000;BME280;11164;48.818;2.322;2022-09-09T12:10:35;100168.16;;;19.95;45.20
22000;BME280;11164;48.818;2.322;2022-09-09T12:13:21;100179.13;;;19.95;45.25
22000;BME280;11164;48.818;2.322;2022-09-09T12:15:50;100166.09;;;19.34;44.78
22000;BME280;11164;48.818;2.322;2022-09-09T12:18:36;100194.50;;;19.33;45.58
22000;BME280;11164;48.818;2.322;2022-09-09T12:21:33;100191.44;;;19.19;46.64
22000;BME280;11164;48.818;2.322;2022-09-09T12:24:43;100172.66;;;18.85;47.62
22000;BME280;11164;48.818;2.322;2022-09-09T12:29:53;100180.09;;;19.00;45.60
22000;BME280;11164;48.818;2.322;2022-09-09T12:32:24;100196.28;;;18.64;47.74
22000;BME280;11164;48.818;2.322;2022-09-09T12:35:11;100185.03;;;18.60;46.91
22000;BME280;11164;48.818;2.322;2022-09-09T12:37:39;100178.44;;;18.93;46.34
22000;BME280;11164;48.818;2.322;2022-09-09T12:40:25;100174.88;;;18.93;47.78
22000;BME280;11164;48.818;2.322;2022-09-09T12:42:51;100183.69;;;19.00;46.06
22000;BME280;11164;48.818;2.322;2022-09-09T12:45:18;100182.81;;;18.94;46.23
22000;BME280;11164;48.818;2.322;2022-09-09T12:47:51;100183.19;;;18.66;47.81
22000;BME280;11164;48.818;2.322;2022-09-09T12:50:22;100189.56;;;18.44;47.81
22000;BME280;11164;48.818;2.322;2022-09-09T12:52:52;100193.44;;;18.48;47.33
22000;BME280;11164;48.818;2.322;2022-09-09T12:55:25;100191.34;;;18.61;47.23
22000;BME280;11164;48.818;2.322;2022-09-09T12:57:53;100204.09;;;18.50;47.01
22000;BME280;11164;48.818;2.322;2022-09-09T13:00:23;100200.66;;;18.32;48.08
22000;BME280;11164;48.818;2.322;2022-09-09T13:02:57;100201.75;;;18.31;49.12
22000;BME280;11164;48.818;2.322;2022-09-09T13:05:26;100205.59;;;18.03;48.99
22000;BME280;11164;48.818;2.322;2022-09-09T13:08:03;100202.81;;;17.98;49.13
22000;BME280;11164;48.818;2.322;2022-09-09T13:10:32;100202.69;;;17.88;48.54
22000;BME280;11164;48.818;2.322;2022-09-09T13:12:59;100209.72;;;17.84;48.33
22000;BME280;11164;48.818;2.322;2022-09-09T13:15:27;100223.72;;;17.65;49.43
22000;BME280;11164;48.818;2.322;2022-09-09T13:17:58;100217.66;;;17.19;53.09
22000;BME280;11164;48.818;2.322;2022-09-09T13:20:26;100227.22;;;16.82;51.34
22000;BME280;11164;48.818;2.322;2022-09-09T13:22:53;100245.13;;;16.61;53.15
22000;BME280;11164;48.818;2.322;2022-09-09T13:25:25;100248.50;;;16.35;54.92
22000;BME280;11164;48.818;2.322;2022-09-09T13:28:02;100245.34;;;16.26;55.92
22000;BME280;11164;48.818;2.322;2022-09-09T13:30:36;100242.78;;;16.36;56.99
22000;BME280;11164;48.818;2.322;2022-09-09T13:35:27;100234.47;;;16.26;52.29
22000;BME280;11164;48.818;2.322;2022-09-09T13:37:53;100234.53;;;16.48;51.50
22000;BME280;11164;48.818;2.322;2022-09-09T13:40:21;100232.84;;;16.76;51.24
22000;BME280;11164;48.818;2.322;2022-09-09T13:42:55;100249.34;;;16.86;53.34
22000;BME280;11164;48.818;2.322;2022-09-09T13:45:23;100230.19;;;16.98;51.06
22000;BME280;11164;48.818;2.322;2022-09-09T13:47:52;100225.13;;;17.06;50.90
22000;BME280;11164;48.818;2.322;2022-09-09T13:52:58;100223.53;;;17.99;52.11
22000;BME280;11164;48.818;2.322;2022-09-09T13:55:26;100221.66;;;17.99;49.85
22000;BME280;11164;48.818;2.322;2022-09-09T13:58:00;100214.00;;;17.52;52.60
22000;BME280;11164;48.818;2.322;2022-09-09T14:00:27;100220.63;;;17.17;52.46
22000;BME280;11164;48.818;2.322;2022-09-09T14:03:02;100224.16;;;17.18;54.55
22000;BME280;11164;48.818;2.322;2022-09-09T14:05:33;100217.44;;;17.03;53.09
22000;BME280;11164;48.818;2.322;2022-09-09T14:07:59;100221.91;;;17.32;52.09
22000;BME280;11164;48.818;2.322;2022-09-09T14:10:28;100228.31;;;18.14;51.20
22000;BME280;11164;48.818;2.322;2022-09-09T14:12:53;100214.38;;;18.75;50.57
22000;BME280;11164;48.818;2.322;2022-09-09T14:15:18;100201.31;;;19.25;49.91
22000;BME280;11164;48.818;2.322;2022-09-09T14:17:45;100208.94;;;20.01;49.17
22000;BME280;11164;48.818;2.322;2022-09-09T14:20:11;100216.84;;;19.87;50.02
22000;BME280;11164;48.818;2.322;2022-09-09T14:22:37;100202.53;;;19.65;50.21
22000;BME280;11164;48.818;2.322;2022-09-09T14:25:04;100215.31;;;19.39;51.07
22000;BME280;11164;48.818;2.322;2022-09-09T14:27:31;100217.09;;;19.12;51.67
22000;BME280;11164;48.818;2.322;2022-09-09T14:29:57;100218.56;;;18.93;52.01
22000;BME280;11164;48.818;2.322;2022-09-09T14:32:26;100216.22;;;19.07;51.41
22000;BME280;11164;48.818;2.322;2022-09-09T14:34:52;100226.50;;;18.94;52.08
22000;BME280;11164;48.818;2.322;2022-09-09T14:37:19;100220.06;;;19.06;51.50
22000;BME280;11164;48.818;2.322;2022-09-09T14:39:46;100226.38;;;18.74;52.34
22000;BME280;11164;48.818;2.322;2022-09-09T14:42:12;100230.00;;;18.80;52.04
22000;BME280;11164;48.818;2.322;2022-09-09T14:44:39;100224.53;;;18.80;51.85
22000;BME280;11164;48.818;2.322;2022-09-09T14:47:06;100218.34;;;18.57;52.35
22000;BME280;11164;48.818;2.322;2022-09-09T14:49:33;100227.28;;;18.85;51.96
22000;BME280;11164;48.818;2.322;2022-09-09T14:51:59;100228.22;;;19.01;51.96
22000;BME280;11164;48.818;2.322;2022-09-09T14:54:24;100214.41;;;19.18;51.34
22000;BME280;11164;48.818;2.322;2022-09-09T14:56:49;100211.00;;;19.58;50.63
22000;BME280;11164;48.818;2.322;2022-09-09T14:59:15;100212.00;;;20.41;49.19
22000;BME280;11164;48.818;2.322;2022-09-09T15:01:40;100205.16;;;20.64;48.99
22000;BME280;11164;48.818;2.322;2022-09-09T15:04:06;100198.75;;;21.05;48.65